Terminal Aerodrome Forecast
Issued by NWS

Home | Current Version | Previous Version | Text Only | Print | Product List | Glossary On
Versions: 1 2 3 4 5 6 7 8 9 10 11 12 13 14 15
460
FTPA31 PHFO 261721
TAFHTO
TAF
PHTO 261721Z 2618/2718 24006KT P6SM FEW035
     FM262000 02012KT P6SM FEW035 SCT060
     FM270600 28008KT P6SM FEW025 SCT050=

USA.gov is the U.S. government's official web portal to all federal, state and local government web resources and services.